sensor_id;sensor_type;location;lat;lon;timestamp;P1;durP1;ratioP1;P2;durP2;ratioP2
66139;SDS011;52945;51.908;8.364;2023-04-15T00:01:43;5.70;;;2.45;;
66139;SDS011;52945;51.908;8.364;2023-04-15T00:04:44;4.35;;;2.20;;
66139;SDS011;52945;51.908;8.364;2023-04-15T00:07:54;6.03;;;2.70;;
66139;SDS011;52945;51.908;8.364;2023-04-15T00:10:55;5.95;;;2.50;;
66139;SDS011;52945;51.908;8.364;2023-04-15T00:13:55;5.68;;;2.42;;
66139;SDS011;52945;51.908;8.364;2023-04-15T00:16:57;5.60;;;2.70;;
66139;SDS011;52945;51.908;8.364;2023-04-15T00:19:58;5.63;;;2.28;;
66139;SDS011;52945;51.908;8.364;2023-04-15T00:22:58;4.60;;;2.63;;
66139;SDS011;52945;51.908;8.364;2023-04-15T00:25:59;4.95;;;2.40;;
66139;SDS011;52945;51.908;8.364;2023-04-15T00:29:00;6.53;;;2.63;;
66139;SDS011;52945;51.908;8.364;2023-04-15T00:32:01;5.97;;;2.42;;
66139;SDS011;52945;51.908;8.364;2023-04-15T00:35:01;4.82;;;2.95;;
66139;SDS011;52945;51.908;8.364;2023-04-15T00:38:03;6.22;;;3.00;;
66139;SDS011;52945;51.908;8.364;2023-04-15T00:44:05;6.05;;;2.70;;
66139;SDS011;52945;51.908;8.364;2023-04-15T00:50:08;5.70;;;2.65;;
66139;SDS011;52945;51.908;8.364;2023-04-15T00:53:09;5.85;;;2.72;;
66139;SDS011;52945;51.908;8.364;2023-04-15T00:56:10;5.38;;;2.78;;
66139;SDS011;52945;51.908;8.364;2023-04-15T00:59:10;3.63;;;2.35;;
66139;SDS011;52945;51.908;8.364;2023-04-15T01:02:11;5.45;;;2.72;;
66139;SDS011;52945;51.908;8.364;2023-04-15T01:05:12;5.10;;;3.08;;
66139;SDS011;52945;51.908;8.364;2023-04-15T01:08:12;5.25;;;3.20;;
66139;SDS011;52945;51.908;8.364;2023-04-15T01:11:13;5.25;;;3.00;;
66139;SDS011;52945;51.908;8.364;2023-04-15T01:14:14;4.40;;;3.05;;
66139;SDS011;52945;51.908;8.364;2023-04-15T01:17:15;6.18;;;3.47;;
66139;SDS011;52945;51.908;8.364;2023-04-15T01:20:16;7.32;;;2.90;;
66139;SDS011;52945;51.908;8.364;2023-04-15T01:23:17;5.22;;;2.83;;
66139;SDS011;52945;51.908;8.364;2023-04-15T01:26:18;7.93;;;3.30;;
66139;SDS011;52945;51.908;8.364;2023-04-15T01:29:20;7.53;;;3.40;;
66139;SDS011;52945;51.908;8.364;2023-04-15T01:35:22;6.18;;;3.22;;
66139;SDS011;52945;51.908;8.364;2023-04-15T01:38:24;7.05;;;3.25;;
66139;SDS011;52945;51.908;8.364;2023-04-15T01:41:26;6.68;;;3.50;;
66139;SDS011;52945;51.908;8.364;2023-04-15T01:44:27;5.63;;;2.92;;
66139;SDS011;52945;51.908;8.364;2023-04-15T01:47:27;8.98;;;3.88;;
66139;SDS011;52945;51.908;8.364;2023-04-15T01:50:28;11.07;;;3.70;;
66139;SDS011;52945;51.908;8.364;2023-04-15T01:53:28;6.40;;;3.38;;
66139;SDS011;52945;51.908;8.364;2023-04-15T01:56:29;7.03;;;3.42;;
66139;SDS011;52945;51.908;8.364;2023-04-15T01:59:30;6.47;;;3.17;;
66139;SDS011;52945;51.908;8.364;2023-04-15T02:02:31;9.18;;;3.92;;
66139;SDS011;52945;51.908;8.364;2023-04-15T02:05:31;7.32;;;3.53;;
66139;SDS011;52945;51.908;8.364;2023-04-15T02:08:32;7.68;;;3.92;;
66139;SDS011;52945;51.908;8.364;2023-04-15T02:11:33;6.07;;;3.42;;
66139;SDS011;52945;51.908;8.364;2023-04-15T02:14:35;6.88;;;3.67;;
66139;SDS011;52945;51.908;8.364;2023-04-15T02:17:35;8.65;;;3.92;;
66139;SDS011;52945;51.908;8.364;2023-04-15T02:20:36;7.55;;;3.78;;
66139;SDS011;52945;51.908;8.364;2023-04-15T02:23:37;8.18;;;3.88;;
66139;SDS011;52945;51.908;8.364;2023-04-15T02:26:37;8.70;;;3.97;;
66139;SDS011;52945;51.908;8.364;2023-04-15T02:29:38;6.65;;;4.03;;
66139;SDS011;52945;51.908;8.364;2023-04-15T02:32:39;8.05;;;4.25;;
66139;SDS011;52945;51.908;8.364;2023-04-15T02:35:42;7.88;;;4.47;;
66139;SDS011;52945;51.908;8.364;2023-04-15T02:38:44;9.35;;;4.53;;
66139;SDS011;52945;51.908;8.364;2023-04-15T02:41:45;10.27;;;4.35;;
66139;SDS011;52945;51.908;8.364;2023-04-15T02:44:50;7.88;;;4.50;;
66139;SDS011;52945;51.908;8.364;2023-04-15T02:47:51;9.02;;;4.47;;
66139;SDS011;52945;51.908;8.364;2023-04-15T02:50:51;10.35;;;4.60;;
66139;SDS011;52945;51.908;8.364;2023-04-15T02:53:52;10.15;;;4.30;;
66139;SDS011;52945;51.908;8.364;2023-04-15T02:56:53;9.02;;;4.32;;
66139;SDS011;52945;51.908;8.364;2023-04-15T02:59:55;10.80;;;3.80;;
66139;SDS011;52945;51.908;8.364;2023-04-15T03:03:00;6.70;;;3.95;;
66139;SDS011;52945;51.908;8.364;2023-04-15T03:06:02;7.10;;;4.15;;
66139;SDS011;52945;51.908;8.364;2023-04-15T03:09:03;10.10;;;4.88;;
66139;SDS011;52945;51.908;8.364;2023-04-15T03:12:03;9.85;;;4.15;;
66139;SDS011;52945;51.908;8.364;2023-04-15T03:15:04;7.35;;;3.45;;
66139;SDS011;52945;51.908;8.364;2023-04-15T03:18:05;10.15;;;4.15;;
66139;SDS011;52945;51.908;8.364;2023-04-15T03:21:06;8.00;;;4.10;;
66139;SDS011;52945;51.908;8.364;2023-04-15T03:24:07;6.25;;;3.83;;
66139;SDS011;52945;51.908;8.364;2023-04-15T03:27:07;9.35;;;3.83;;
66139;SDS011;52945;51.908;8.364;2023-04-15T03:30:08;8.27;;;4.10;;
66139;SDS011;52945;51.908;8.364;2023-04-15T03:33:09;8.82;;;4.10;;
66139;SDS011;52945;51.908;8.364;2023-04-15T03:36:10;10.98;;;4.38;;
66139;SDS011;52945;51.908;8.364;2023-04-15T03:39:10;8.95;;;3.90;;
66139;SDS011;52945;51.908;8.364;2023-04-15T03:42:11;9.40;;;4.85;;
66139;SDS011;52945;51.908;8.364;2023-04-15T03:45:12;8.38;;;4.07;;
66139;SDS011;52945;51.908;8.364;2023-04-15T03:48:13;9.73;;;4.63;;
66139;SDS011;52945;51.908;8.364;2023-04-15T03:51:13;7.53;;;3.70;;
66139;SDS011;52945;51.908;8.364;2023-04-15T03:54:14;7.68;;;4.20;;
66139;SDS011;52945;51.908;8.364;2023-04-15T03:57:14;9.00;;;4.10;;
66139;SDS011;52945;51.908;8.364;2023-04-15T04:00:15;8.40;;;4.28;;
66139;SDS011;52945;51.908;8.364;2023-04-15T04:03:16;8.90;;;3.80;;
66139;SDS011;52945;51.908;8.364;2023-04-15T04:06:16;11.05;;;4.78;;
66139;SDS011;52945;51.908;8.364;2023-04-15T04:09:17;7.32;;;4.30;;
66139;SDS011;52945;51.908;8.364;2023-04-15T04:12:17;7.78;;;4.25;;
66139;SDS011;52945;51.908;8.364;2023-04-15T04:15:18;8.55;;;4.05;;
66139;SDS011;52945;51.908;8.364;2023-04-15T04:18:19;8.80;;;4.32;;
66139;SDS011;52945;51.908;8.364;2023-04-15T04:21:19;8.30;;;3.78;;
66139;SDS011;52945;51.908;8.364;2023-04-15T04:24:20;8.65;;;3.80;;
66139;SDS011;52945;51.908;8.364;2023-04-15T04:27:21;11.95;;;4.43;;
66139;SDS011;52945;51.908;8.364;2023-04-15T04:30:21;11.75;;;4.15;;
66139;SDS011;52945;51.908;8.364;2023-04-15T04:33:22;8.55;;;4.43;;
66139;SDS011;52945;51.908;8.364;2023-04-15T04:36:23;8.38;;;4.30;;
66139;SDS011;52945;51.908;8.364;2023-04-15T04:39:24;8.77;;;3.97;;
66139;SDS011;52945;51.908;8.364;2023-04-15T04:42:25;8.40;;;4.50;;
66139;SDS011;52945;51.908;8.364;2023-04-15T04:45:25;7.30;;;3.95;;
66139;SDS011;52945;51.908;8.364;2023-04-15T04:48:26;9.85;;;4.63;;
66139;SDS011;52945;51.908;8.364;2023-04-15T04:51:27;10.30;;;3.88;;
66139;SDS011;52945;51.908;8.364;2023-04-15T04:54:27;9.88;;;4.35;;
66139;SDS011;52945;51.908;8.364;2023-04-15T04:57:29;8.52;;;4.32;;
66139;SDS011;52945;51.908;8.364;2023-04-15T05:00:30;9.38;;;3.83;;
66139;SDS011;52945;51.908;8.364;2023-04-15T05:03:30;7.57;;;4.15;;
66139;SDS011;52945;51.908;8.364;2023-04-15T05:06:31;10.10;;;4.35;;
66139;SDS011;52945;51.908;8.364;2023-04-15T05:09:32;12.40;;;4.50;;
66139;SDS011;52945;51.908;8.364;2023-04-15T05:12:35;8.23;;;4.20;;
66139;SDS011;52945;51.908;8.364;2023-04-15T05:15:37;7.97;;;4.28;;
66139;SDS011;52945;51.908;8.364;2023-04-15T05:18:40;10.07;;;4.38;;
66139;SDS011;52945;51.908;8.364;2023-04-15T05:21:40;9.82;;;4.35;;
66139;SDS011;52945;51.908;8.364;2023-04-15T05:24:41;10.65;;;4.43;;
66139;SDS011;52945;51.908;8.364;2023-04-15T05:27:42;8.55;;;3.90;;
66139;SDS011;52945;51.908;8.364;2023-04-15T05:30:42;11.68;;;4.85;;
66139;SDS011;52945;51.908;8.364;2023-04-15T05:33:43;8.45;;;4.25;;
66139;SDS011;52945;51.908;8.364;2023-04-15T05:36:43;8.15;;;4.45;;
66139;SDS011;52945;51.908;8.364;2023-04-15T05:39:44;8.63;;;4.45;;
66139;SDS011;52945;51.908;8.364;2023-04-15T05:42:45;9.48;;;4.60;;
66139;SDS011;52945;51.908;8.364;2023-04-15T05:45:46;10.23;;;4.32;;
66139;SDS011;52945;51.908;8.364;2023-04-15T05:48:46;9.45;;;4.25;;
66139;SDS011;52945;51.908;8.364;2023-04-15T05:51:47;9.80;;;4.70;;
66139;SDS011;52945;51.908;8.364;2023-04-15T05:54:48;9.30;;;4.53;;
66139;SDS011;52945;51.908;8.364;2023-04-15T05:57:48;9.98;;;4.57;;
66139;SDS011;52945;51.908;8.364;2023-04-15T06:00:49;9.77;;;4.78;;
66139;SDS011;52945;51.908;8.364;2023-04-15T06:03:49;10.43;;;4.70;;
66139;SDS011;52945;51.908;8.364;2023-04-15T06:06:50;9.85;;;5.03;;
66139;SDS011;52945;51.908;8.364;2023-04-15T06:09:51;10.52;;;4.20;;
66139;SDS011;52945;51.908;8.364;2023-04-15T06:12:52;13.15;;;5.10;;
66139;SDS011;52945;51.908;8.364;2023-04-15T06:15:52;10.05;;;4.30;;
66139;SDS011;52945;51.908;8.364;2023-04-15T06:18:53;8.73;;;4.32;;
66139;SDS011;52945;51.908;8.364;2023-04-15T06:21:54;12.80;;;4.55;;
66139;SDS011;52945;51.908;8.364;2023-04-15T06:24:54;12.35;;;4.25;;
66139;SDS011;52945;51.908;8.364;2023-04-15T06:27:55;11.45;;;4.38;;
66139;SDS011;52945;51.908;8.364;2023-04-15T06:30:56;10.82;;;4.82;;
66139;SDS011;52945;51.908;8.364;2023-04-15T06:33:56;9.02;;;3.88;;
66139;SDS011;52945;51.908;8.364;2023-04-15T06:36:57;10.52;;;4.63;;
66139;SDS011;52945;51.908;8.364;2023-04-15T06:39:57;17.38;;;5.88;;
66139;SDS011;52945;51.908;8.364;2023-04-15T06:42:58;11.00;;;5.30;;
66139;SDS011;52945;51.908;8.364;2023-04-15T06:45:59;10.52;;;4.88;;
66139;SDS011;52945;51.908;8.364;2023-04-15T06:49:00;12.05;;;5.38;;
66139;SDS011;52945;51.908;8.364;2023-04-15T06:52:01;11.35;;;4.82;;
66139;SDS011;52945;51.908;8.364;2023-04-15T06:55:01;8.35;;;3.92;;
66139;SDS011;52945;51.908;8.364;2023-04-15T06:58:02;10.88;;;5.03;;
66139;SDS011;52945;51.908;8.364;2023-04-15T07:01:03;13.70;;;5.63;;
66139;SDS011;52945;51.908;8.364;2023-04-15T07:04:04;12.45;;;5.30;;
66139;SDS011;52945;51.908;8.364;2023-04-15T07:07:05;11.00;;;5.63;;
66139;SDS011;52945;51.908;8.364;2023-04-15T07:10:07;12.85;;;5.32;;
66139;SDS011;52945;51.908;8.364;2023-04-15T07:13:08;15.85;;;6.43;;
66139;SDS011;52945;51.908;8.364;2023-04-15T07:16:08;14.40;;;5.95;;
66139;SDS011;52945;51.908;8.364;2023-04-15T07:19:09;11.88;;;5.35;;
66139;SDS011;52945;51.908;8.364;2023-04-15T07:22:09;12.57;;;5.82;;
66139;SDS011;52945;51.908;8.364;2023-04-15T07:25:10;12.98;;;5.43;;
66139;SDS011;52945;51.908;8.364;2023-04-15T07:28:10;11.88;;;5.90;;
66139;SDS011;52945;51.908;8.364;2023-04-15T07:31:11;12.65;;;4.93;;
66139;SDS011;52945;51.908;8.364;2023-04-15T07:34:12;11.27;;;5.15;;
66139;SDS011;52945;51.908;8.364;2023-04-15T07:37:13;11.48;;;5.50;;
66139;SDS011;52945;51.908;8.364;2023-04-15T07:40:14;11.50;;;4.88;;
66139;SDS011;52945;51.908;8.364;2023-04-15T07:43:15;12.07;;;4.78;;
66139;SDS011;52945;51.908;8.364;2023-04-15T07:46:15;10.00;;;5.00;;
66139;SDS011;52945;51.908;8.364;2023-04-15T07:49:16;13.43;;;5.53;;
66139;SDS011;52945;51.908;8.364;2023-04-15T07:52:18;12.77;;;5.22;;
66139;SDS011;52945;51.908;8.364;2023-04-15T07:55:19;12.45;;;5.75;;
66139;SDS011;52945;51.908;8.364;2023-04-15T07:58:21;12.25;;;5.05;;
66139;SDS011;52945;51.908;8.364;2023-04-15T08:01:22;12.10;;;5.50;;
66139;SDS011;52945;51.908;8.364;2023-04-15T08:04:23;14.45;;;5.25;;
66139;SDS011;52945;51.908;8.364;2023-04-15T08:07:23;10.05;;;5.25;;
66139;SDS011;52945;51.908;8.364;2023-04-15T08:10:24;15.23;;;6.40;;
66139;SDS011;52945;51.908;8.364;2023-04-15T08:13:25;15.63;;;5.80;;
66139;SDS011;52945;51.908;8.364;2023-04-15T08:16:26;15.00;;;6.00;;
66139;SDS011;52945;51.908;8.364;2023-04-15T08:19:27;14.13;;;6.30;;
66139;SDS011;52945;51.908;8.364;2023-04-15T08:22:28;12.30;;;5.75;;
66139;SDS011;52945;51.908;8.364;2023-04-15T08:25:28;11.82;;;4.95;;
66139;SDS011;52945;51.908;8.364;2023-04-15T08:28:29;14.90;;;5.82;;
66139;SDS011;52945;51.908;8.364;2023-04-15T08:31:30;13.70;;;5.78;;
66139;SDS011;52945;51.908;8.364;2023-04-15T08:34:31;14.55;;;5.43;;
66139;SDS011;52945;51.908;8.364;2023-04-15T08:37:32;11.15;;;4.97;;
66139;SDS011;52945;51.908;8.364;2023-04-15T08:40:35;13.65;;;5.57;;
66139;SDS011;52945;51.908;8.364;2023-04-15T08:43:44;16.13;;;6.18;;
66139;SDS011;52945;51.908;8.364;2023-04-15T08:46:50;16.90;;;5.85;;
66139;SDS011;52945;51.908;8.364;2023-04-15T08:49:53;15.00;;;5.28;;
66139;SDS011;52945;51.908;8.364;2023-04-15T08:53:00;13.93;;;5.28;;
66139;SDS011;52945;51.908;8.364;2023-04-15T08:56:03;11.13;;;5.05;;
66139;SDS011;52945;51.908;8.364;2023-04-15T08:59:06;11.77;;;4.53;;
66139;SDS011;52945;51.908;8.364;2023-04-15T09:02:07;12.55;;;4.88;;
66139;SDS011;52945;51.908;8.364;2023-04-15T09:05:08;12.93;;;4.63;;
66139;SDS011;52945;51.908;8.364;2023-04-15T09:08:09;12.13;;;4.10;;
66139;SDS011;52945;51.908;8.364;2023-04-15T09:11:09;11.45;;;4.10;;
66139;SDS011;52945;51.908;8.364;2023-04-15T09:14:10;10.80;;;4.53;;
66139;SDS011;52945;51.908;8.364;2023-04-15T09:17:11;9.32;;;3.90;;
66139;SDS011;52945;51.908;8.364;2023-04-15T09:20:12;9.88;;;3.85;;
66139;SDS011;52945;51.908;8.364;2023-04-15T09:23:14;10.77;;;4.47;;
66139;SDS011;52945;51.908;8.364;2023-04-15T09:26:16;8.52;;;3.70;;
66139;SDS011;52945;51.908;8.364;2023-04-15T09:29:17;8.05;;;3.55;;
66139;SDS011;52945;51.908;8.364;2023-04-15T09:32:17;8.27;;;3.45;;
66139;SDS011;52945;51.908;8.364;2023-04-15T09:35:20;7.72;;;3.72;;
66139;SDS011;52945;51.908;8.364;2023-04-15T09:38:21;7.10;;;3.50;;
66139;SDS011;52945;51.908;8.364;2023-04-15T09:41:22;6.40;;;3.28;;
66139;SDS011;52945;51.908;8.364;2023-04-15T09:44:24;7.80;;;3.30;;
66139;SDS011;52945;51.908;8.364;2023-04-15T09:47:26;6.72;;;3.10;;
66139;SDS011;52945;51.908;8.364;2023-04-15T09:50:30;7.05;;;3.03;;
66139;SDS011;52945;51.908;8.364;2023-04-15T09:53:40;6.45;;;3.05;;
66139;SDS011;52945;51.908;8.364;2023-04-15T09:56:40;7.03;;;3.03;;
66139;SDS011;52945;51.908;8.364;2023-04-15T09:59:41;5.75;;;2.80;;
66139;SDS011;52945;51.908;8.364;2023-04-15T10:02:42;6.88;;;2.92;;
66139;SDS011;52945;51.908;8.364;2023-04-15T10:05:42;5.65;;;2.50;;
66139;SDS011;52945;51.908;8.364;2023-04-15T10:08:43;6.60;;;2.72;;
66139;SDS011;52945;51.908;8.364;2023-04-15T10:11:45;7.10;;;3.03;;
66139;SDS011;52945;51.908;8.364;2023-04-15T10:14:52;5.13;;;2.45;;
66139;SDS011;52945;51.908;8.364;2023-04-15T10:17:58;3.95;;;2.35;;
66139;SDS011;52945;51.908;8.364;2023-04-15T10:21:00;4.13;;;1.95;;
66139;SDS011;52945;51.908;8.364;2023-04-15T10:24:01;4.38;;;2.40;;
66139;SDS011;52945;51.908;8.364;2023-04-15T10:27:03;5.05;;;2.38;;
66139;SDS011;52945;51.908;8.364;2023-04-15T10:30:05;4.57;;;2.33;;
66139;SDS011;52945;51.908;8.364;2023-04-15T10:33:08;3.67;;;2.17;;
66139;SDS011;52945;51.908;8.364;2023-04-15T10:36:10;4.63;;;2.42;;
66139;SDS011;52945;51.908;8.364;2023-04-15T10:42:33;3.58;;;2.00;;
66139;SDS011;52945;51.908;8.364;2023-04-15T10:45:35;3.38;;;2.15;;
66139;SDS011;52945;51.908;8.364;2023-04-15T10:48:36;4.80;;;2.05;;
66139;SDS011;52945;51.908;8.364;2023-04-15T10:51:38;4.43;;;2.08;;
66139;SDS011;52945;51.908;8.364;2023-04-15T10:54:42;5.03;;;2.05;;
66139;SDS011;52945;51.908;8.364;2023-04-15T10:57:43;4.10;;;2.22;;
66139;SDS011;52945;51.908;8.364;2023-04-15T11:00:48;4.97;;;2.50;;
66139;SDS011;52945;51.908;8.364;2023-04-15T11:03:51;5.15;;;2.20;;
66139;SDS011;52945;51.908;8.364;2023-04-15T11:07:04;3.63;;;2.13;;
66139;SDS011;52945;51.908;8.364;2023-04-15T11:13:24;3.55;;;2.00;;
66139;SDS011;52945;51.908;8.364;2023-04-15T11:16:27;4.13;;;2.15;;
66139;SDS011;52945;51.908;8.364;2023-04-15T11:19:34;3.78;;;2.10;;
66139;SDS011;52945;51.908;8.364;2023-04-15T11:22:35;4.15;;;2.40;;
66139;SDS011;52945;51.908;8.364;2023-04-15T11:25:36;7.05;;;3.13;;
66139;SDS011;52945;51.908;8.364;2023-04-15T11:28:37;5.88;;;2.90;;
66139;SDS011;52945;51.908;8.364;2023-04-15T11:31:42;4.20;;;2.20;;
66139;SDS011;52945;51.908;8.364;2023-04-15T11:34:48;4.47;;;2.25;;
66139;SDS011;52945;51.908;8.364;2023-04-15T11:37:51;5.05;;;2.55;;
66139;SDS011;52945;51.908;8.364;2023-04-15T11:40:52;4.20;;;2.30;;
66139;SDS011;52945;51.908;8.364;2023-04-15T11:43:52;4.28;;;2.28;;
66139;SDS011;52945;51.908;8.364;2023-04-15T11:46:53;3.47;;;1.95;;
66139;SDS011;52945;51.908;8.364;2023-04-15T11:52:56;4.78;;;2.42;;
66139;SDS011;52945;51.908;8.364;2023-04-15T11:56:01;7.22;;;2.53;;
66139;SDS011;52945;51.908;8.364;2023-04-15T11:59:01;4.45;;;2.35;;
66139;SDS011;52945;51.908;8.364;2023-04-15T12:05:10;4.50;;;2.33;;
66139;SDS011;52945;51.908;8.364;2023-04-15T12:08:11;4.90;;;2.20;;
66139;SDS011;52945;51.908;8.364;2023-04-15T12:11:11;3.42;;;1.98;;
66139;SDS011;52945;51.908;8.364;2023-04-15T12:14:31;5.55;;;2.15;;
66139;SDS011;52945;51.908;8.364;2023-04-15T12:20:42;4.65;;;2.60;;
66139;SDS011;52945;51.908;8.364;2023-04-15T12:23:47;6.20;;;2.50;;
66139;SDS011;52945;51.908;8.364;2023-04-15T12:26:53;4.82;;;2.42;;
66139;SDS011;52945;51.908;8.364;2023-04-15T12:30:02;4.28;;;2.28;;
66139;SDS011;52945;51.908;8.364;2023-04-15T12:33:04;4.20;;;2.25;;
66139;SDS011;52945;51.908;8.364;2023-04-15T12:36:05;2.38;;;1.75;;
66139;SDS011;52945;51.908;8.364;2023-04-15T12:39:05;3.50;;;1.90;;
66139;SDS011;52945;51.908;8.364;2023-04-15T12:42:06;3.17;;;2.17;;
66139;SDS011;52945;51.908;8.364;2023-04-15T12:45:07;4.10;;;1.92;;
66139;SDS011;52945;51.908;8.364;2023-04-15T12:48:08;3.75;;;2.17;;
66139;SDS011;52945;51.908;8.364;2023-04-15T12:51:09;3.33;;;2.05;;
66139;SDS011;52945;51.908;8.364;2023-04-15T12:54:09;3.90;;;2.25;;
66139;SDS011;52945;51.908;8.364;2023-04-15T12:57:10;2.28;;;1.95;;
66139;SDS011;52945;51.908;8.364;2023-04-15T13:00:11;2.58;;;1.67;;
66139;SDS011;52945;51.908;8.364;2023-04-15T13:03:12;2.53;;;1.63;;
66139;SDS011;52945;51.908;8.364;2023-04-15T13:06:13;2.05;;;1.48;;
66139;SDS011;52945;51.908;8.364;2023-04-15T13:09:13;3.42;;;1.88;;
66139;SDS011;52945;51.908;8.364;2023-04-15T13:12:14;2.83;;;1.88;;
66139;SDS011;52945;51.908;8.364;2023-04-15T13:15:15;2.67;;;2.03;;
66139;SDS011;52945;51.908;8.364;2023-04-15T13:18:18;3.40;;;1.70;;
66139;SDS011;52945;51.908;8.364;2023-04-15T13:21:19;2.75;;;1.55;;
66139;SDS011;52945;51.908;8.364;2023-04-15T13:24:20;2.72;;;1.67;;
66139;SDS011;52945;51.908;8.364;2023-04-15T13:27:20;2.60;;;1.40;;
66139;SDS011;52945;51.908;8.364;2023-04-15T13:30:21;2.72;;;1.80;;
66139;SDS011;52945;51.908;8.364;2023-04-15T13:33:21;3.10;;;1.75;;
66139;SDS011;52945;51.908;8.364;2023-04-15T13:36:22;2.88;;;1.40;;
66139;SDS011;52945;51.908;8.364;2023-04-15T13:39:23;2.78;;;1.77;;
66139;SDS011;52945;51.908;8.364;2023-04-15T13:42:23;2.55;;;1.60;;
66139;SDS011;52945;51.908;8.364;2023-04-15T13:45:24;3.47;;;1.65;;
66139;SDS011;52945;51.908;8.364;2023-04-15T13:48:25;3.38;;;1.73;;
66139;SDS011;52945;51.908;8.364;2023-04-15T13:51:26;2.13;;;1.45;;
66139;SDS011;52945;51.908;8.364;2023-04-15T13:54:26;3.30;;;1.65;;
66139;SDS011;52945;51.908;8.364;2023-04-15T13:57:27;3.03;;;1.70;;
66139;SDS011;52945;51.908;8.364;2023-04-15T14:00:28;4.25;;;1.60;;
66139;SDS011;52945;51.908;8.364;2023-04-15T14:03:28;2.92;;;1.63;;
66139;SDS011;52945;51.908;8.364;2023-04-15T14:06:29;2.50;;;1.27;;
66139;SDS011;52945;51.908;8.364;2023-04-15T14:09:31;1.73;;;1.38;;
66139;SDS011;52945;51.908;8.364;2023-04-15T14:12:32;4.35;;;1.73;;
66139;SDS011;52945;51.908;8.364;2023-04-15T14:15:33;3.47;;;2.10;;
66139;SDS011;52945;51.908;8.364;2023-04-15T14:18:33;2.60;;;1.80;;
66139;SDS011;52945;51.908;8.364;2023-04-15T14:21:34;3.40;;;2.00;;
66139;SDS011;52945;51.908;8.364;2023-04-15T14:24:34;4.47;;;2.35;;
66139;SDS011;52945;51.908;8.364;2023-04-15T14:27:35;4.47;;;2.00;;
66139;SDS011;52945;51.908;8.364;2023-04-15T14:30:36;5.07;;;2.33;;
66139;SDS011;52945;51.908;8.364;2023-04-15T14:33:36;4.03;;;2.25;;
66139;SDS011;52945;51.908;8.364;2023-04-15T14:36:37;4.40;;;2.20;;
66139;SDS011;52945;51.908;8.364;2023-04-15T14:39:37;4.30;;;2.40;;
66139;SDS011;52945;51.908;8.364;2023-04-15T14:42:38;4.28;;;2.40;;
66139;SDS011;52945;51.908;8.364;2023-04-15T14:45:39;4.70;;;2.83;;
66139;SDS011;52945;51.908;8.364;2023-04-15T14:48:40;4.13;;;2.38;;
66139;SDS011;52945;51.908;8.364;2023-04-15T14:51:41;4.28;;;2.65;;
66139;SDS011;52945;51.908;8.364;2023-04-15T14:54:42;4.70;;;2.38;;
66139;SDS011;52945;51.908;8.364;2023-04-15T14:57:43;5.55;;;3.03;;
66139;SDS011;52945;51.908;8.364;2023-04-15T15:00:43;4.95;;;2.67;;
66139;SDS011;52945;51.908;8.364;2023-04-15T15:03:44;6.60;;;2.92;;
66139;SDS011;52945;51.908;8.364;2023-04-15T15:06:45;5.43;;;2.83;;
66139;SDS011;52945;51.908;8.364;2023-04-15T15:09:46;7.25;;;3.05;;
66139;SDS011;52945;51.908;8.364;2023-04-15T15:12:46;7.57;;;3.10;;
66139;SDS011;52945;51.908;8.364;2023-04-15T15:15:47;5.45;;;3.03;;
66139;SDS011;52945;51.908;8.364;2023-04-15T15:18:48;6.65;;;2.97;;
66139;SDS011;52945;51.908;8.364;2023-04-15T15:21:50;5.75;;;2.88;;
66139;SDS011;52945;51.908;8.364;2023-04-15T15:24:51;6.47;;;3.22;;
66139;SDS011;52945;51.908;8.364;2023-04-15T15:27:52;6.00;;;2.97;;
66139;SDS011;52945;51.908;8.364;2023-04-15T15:30:53;5.82;;;3.20;;
66139;SDS011;52945;51.908;8.364;2023-04-15T15:33:53;5.53;;;3.10;;
66139;SDS011;52945;51.908;8.364;2023-04-15T15:36:54;5.05;;;3.13;;
66139;SDS011;52945;51.908;8.364;2023-04-15T15:42:56;7.70;;;3.47;;
66139;SDS011;52945;51.908;8.364;2023-04-15T15:45:57;10.65;;;4.13;;
66139;SDS011;52945;51.908;8.364;2023-04-15T15:48:57;7.10;;;3.42;;
66139;SDS011;52945;51.908;8.364;2023-04-15T15:51:58;7.88;;;3.78;;
66139;SDS011;52945;51.908;8.364;2023-04-15T15:54:59;8.23;;;3.95;;
66139;SDS011;52945;51.908;8.364;2023-04-15T15:58:00;7.63;;;3.28;;
66139;SDS011;52945;51.908;8.364;2023-04-15T16:01:01;6.38;;;3.03;;
66139;SDS011;52945;51.908;8.364;2023-04-15T16:04:01;8.65;;;4.10;;
66139;SDS011;52945;51.908;8.364;2023-04-15T16:07:02;9.52;;;3.88;;
66139;SDS011;52945;51.908;8.364;2023-04-15T16:10:03;10.15;;;3.97;;
66139;SDS011;52945;51.908;8.364;2023-04-15T16:13:04;9.32;;;3.33;;
66139;SDS011;52945;51.908;8.364;2023-04-15T16:16:05;8.23;;;3.70;;
66139;SDS011;52945;51.908;8.364;2023-04-15T16:19:06;7.88;;;3.67;;
66139;SDS011;52945;51.908;8.364;2023-04-15T16:22:06;6.28;;;3.53;;
66139;SDS011;52945;51.908;8.364;2023-04-15T16:25:07;6.63;;;3.40;;
66139;SDS011;52945;51.908;8.364;2023-04-15T16:28:08;6.88;;;3.22;;
66139;SDS011;52945;51.908;8.364;2023-04-15T16:31:12;4.75;;;3.10;;
66139;SDS011;52945;51.908;8.364;2023-04-15T16:34:12;9.50;;;3.40;;
66139;SDS011;52945;51.908;8.364;2023-04-15T16:37:14;7.93;;;3.58;;
66139;SDS011;52945;51.908;8.364;2023-04-15T16:40:15;6.50;;;3.63;;
66139;SDS011;52945;51.908;8.364;2023-04-15T16:43:16;7.07;;;3.33;;
66139;SDS011;52945;51.908;8.364;2023-04-15T16:46:16;9.38;;;4.10;;
66139;SDS011;52945;51.908;8.364;2023-04-15T16:49:17;10.70;;;4.05;;
66139;SDS011;52945;51.908;8.364;2023-04-15T16:52:17;9.30;;;3.22;;
66139;SDS011;52945;51.908;8.364;2023-04-15T16:55:18;8.43;;;3.63;;
66139;SDS011;52945;51.908;8.364;2023-04-15T16:58:19;11.85;;;4.38;;
66139;SDS011;52945;51.908;8.364;2023-04-15T17:01:19;7.43;;;3.60;;
66139;SDS011;52945;51.908;8.364;2023-04-15T17:04:20;9.18;;;4.20;;
66139;SDS011;52945;51.908;8.364;2023-04-15T17:07:21;8.38;;;4.07;;
66139;SDS011;52945;51.908;8.364;2023-04-15T17:10:22;7.97;;;3.72;;
66139;SDS011;52945;51.908;8.364;2023-04-15T17:13:22;9.40;;;3.90;;
66139;SDS011;52945;51.908;8.364;2023-04-15T17:16:25;8.63;;;3.50;;
66139;SDS011;52945;51.908;8.364;2023-04-15T17:19:25;7.50;;;3.47;;
66139;SDS011;52945;51.908;8.364;2023-04-15T17:22:26;8.50;;;4.13;;
66139;SDS011;52945;51.908;8.364;2023-04-15T17:25:27;7.90;;;4.32;;
66139;SDS011;52945;51.908;8.364;2023-04-15T17:28:27;11.93;;;4.13;;
66139;SDS011;52945;51.908;8.364;2023-04-15T17:31:28;12.55;;;4.15;;
66139;SDS011;52945;51.908;8.364;2023-04-15T17:34:29;7.50;;;3.70;;
66139;SDS011;52945;51.908;8.364;2023-04-15T17:37:30;8.82;;;4.25;;
66139;SDS011;52945;51.908;8.364;2023-04-15T17:40:31;10.88;;;4.60;;
66139;SDS011;52945;51.908;8.364;2023-04-15T17:43:32;9.18;;;4.30;;
66139;SDS011;52945;51.908;8.364;2023-04-15T17:46:32;8.65;;;4.30;;
66139;SDS011;52945;51.908;8.364;2023-04-15T17:49:33;9.50;;;4.97;;
66139;SDS011;52945;51.908;8.364;2023-04-15T17:52:36;12.95;;;4.90;;
66139;SDS011;52945;51.908;8.364;2023-04-15T17:55:37;11.65;;;4.65;;
66139;SDS011;52945;51.908;8.364;2023-04-15T17:58:37;11.48;;;4.50;;
66139;SDS011;52945;51.908;8.364;2023-04-15T18:01:38;12.60;;;5.10;;
66139;SDS011;52945;51.908;8.364;2023-04-15T18:04:39;12.00;;;5.30;;
66139;SDS011;52945;51.908;8.364;2023-04-15T18:07:39;14.48;;;5.38;;
66139;SDS011;52945;51.908;8.364;2023-04-15T18:10:40;12.75;;;4.82;;
66139;SDS011;52945;51.908;8.364;2023-04-15T18:13:41;12.10;;;4.85;;
66139;SDS011;52945;51.908;8.364;2023-04-15T18:16:41;12.35;;;5.22;;
66139;SDS011;52945;51.908;8.364;2023-04-15T18:19:42;13.68;;;5.30;;
66139;SDS011;52945;51.908;8.364;2023-04-15T18:22:44;12.13;;;5.07;;
66139;SDS011;52945;51.908;8.364;2023-04-15T18:25:45;14.35;;;5.22;;
66139;SDS011;52945;51.908;8.364;2023-04-15T18:28:45;12.65;;;5.43;;
66139;SDS011;52945;51.908;8.364;2023-04-15T18:31:46;15.15;;;6.07;;
66139;SDS011;52945;51.908;8.364;2023-04-15T18:34:47;14.27;;;5.40;;